Time;durP1;ratioP1;P1;durP2;ratioP2;P2;SDS_P1;SDS_P2;PMS_P1;PMS_P2;Temp;Humidity;BMP_temperature;BMP_pressure;BME280_temperature;BME280_humidity;BME280_pressure;Samples;Min_cycle;Max_cycle;Signal;HPM_P1;HPM_P2
2021/08/18 00:02:23;;;;;;;13.23;6.70;;;;;;;22.22;56.05;98318.16;5115404;28;20469;-91
2021/08/18 00:04:49;;;;;;;12.70;6.05;;;;;;;22.27;56.06;98328.59;5115626;28;20054;-91
2021/08/18 00:07:14;;;;;;;11.68;6.03;;;;;;;22.23;56.31;98319.91;5116534;28;20040;-90
2021/08/18 00:09:40;;;;;;;14.82;7.30;;;;;;;22.18;56.07;98318.50;5117298;28;20131;-91
2021/08/18 00:12:07;;;;;;;14.65;6.10;;;;;;;22.21;56.22;98329.09;5117987;28;20110;-91
2021/08/18 00:14:34;;;;;;;11.65;6.53;;;;;;;22.26;55.91;98340.44;5116168;28;20031;-92
2021/08/18 00:17:00;;;;;;;14.25;6.20;;;;;;;22.29;56.39;98343.78;5113584;28;20107;-90
2021/08/18 00:19:26;;;;;;;12.80;6.50;;;;;;;22.22;56.20;98331.69;5117420;28;20090;-92
2021/08/18 00:21:53;;;;;;;12.75;6.13;;;;;;;22.12;56.22;98319.84;5117820;28;20059;-90
2021/08/18 00:24:18;;;;;;;9.05;5.30;;;;;;;22.17;56.56;98339.31;5115694;28;20419;-90
2021/08/18 00:26:44;;;;;;;12.13;6.13;;;;;;;22.18;56.06;98338.31;5115791;28;20042;-91
2021/08/18 00:29:10;;;;;;;14.90;6.80;;;;;;;22.21;56.22;98351.63;5117611;28;20577;-91
2021/08/18 00:31:38;;;;;;;13.93;6.35;;;;;;;22.18;55.95;98338.31;5115515;28;20397;-92
2021/08/18 00:34:04;;;;;;;15.05;6.40;;;;;;;22.20;56.39;98344.47;5117289;28;20063;-90
2021/08/18 00:36:30;;;;;;;9.40;5.65;;;;;;;22.16;56.85;98359.25;5117071;28;20059;-90
2021/08/18 00:38:56;;;;;;;10.73;6.28;;;;;;;22.08;57.12;98357.19;5116320;28;20040;-92
2021/08/18 00:41:23;;;;;;;8.18;5.22;;;;;;;22.00;56.96;98342.53;5115509;28;20023;-89
2021/08/18 00:43:49;;;;;;;12.82;5.90;;;;;;;21.95;57.57;98349.19;5116133;28;20044;-92
2021/08/18 00:46:15;;;;;;;13.52;6.05;;;;;;;21.70;58.20;98336.72;5115100;28;20099;-91
2021/08/18 00:48:43;;;;;;;13.05;6.65;;;;;;;21.66;58.61;98350.63;5117325;27;20821;-91
2021/08/18 00:51:09;;;;;;;10.40;5.40;;;;;;;21.76;57.91;98356.19;5116838;28;20032;-93
2021/08/18 00:53:34;;;;;;;11.45;6.20;;;;;;;21.67;58.16;98357.78;5116198;28;20066;-91
2021/08/18 00:56:00;;;;;;;14.48;6.43;;;;;;;21.63;58.15;98342.78;5115737;27;20447;-92
2021/08/18 00:58:28;;;;;;;13.30;6.00;;;;;;;21.70;58.34;98354.81;5115497;28;20039;-91
2021/08/18 01:00:54;;;;;;;18.50;6.35;;;;;;;21.69;58.18;98353.13;5115402;28;20043;-91
2021/08/18 01:03:20;;;;;;;9.38;5.85;;;;;;;21.54;58.31;98356.03;5117386;28;20045;-92
2021/08/18 01:05:47;;;;;;;10.95;7.05;;;;;;;21.56;58.63;98365.88;5115349;28;20043;-92
2021/08/18 01:08:13;;;;;;;11.77;6.40;;;;;;;21.70;58.51;98381.88;5115540;28;20040;-91
2021/08/18 01:10:39;;;;;;;13.60;6.68;;;;;;;21.49;59.19;98377.19;5116162;28;20046;-92
2021/08/18 01:13:05;;;;;;;14.65;7.03;;;;;;;21.34;58.89;98357.56;5115745;28;20047;-93
2021/08/18 01:15:33;;;;;;;14.02;6.47;;;;;;;21.31;59.09;98352.38;5112257;28;20059;-92
2021/08/18 01:18:01;;;;;;;9.27;6.17;;;;;;;21.41;59.05;98362.50;5115363;28;20631;-91
2021/08/18 01:20:29;;;;;;;13.83;6.30;;;;;;;21.38;59.22;98352.78;5115185;28;20057;-89
2021/08/18 01:22:57;;;;;;;12.85;6.43;;;;;;;21.42;59.13;98373.22;5116909;28;20092;-91
2021/08/18 01:25:23;;;;;;;9.90;6.25;;;;;;;21.42;58.85;98369.66;5116995;28;20050;-91
2021/08/18 01:27:51;;;;;;;11.02;6.60;;;;;;;21.53;58.89;98380.50;5115038;28;20459;-90
2021/08/18 01:30:22;;;;;;;11.45;6.38;;;;;;;21.46;59.16;98360.34;5113287;28;20550;-93
2021/08/18 01:32:51;;;;;;;12.93;6.25;;;;;;;21.54;58.72;98383.09;5114055;28;20062;-90
2021/08/18 01:35:21;;;;;;;12.63;6.18;;;;;;;21.52;58.23;98370.69;5116507;28;20488;-92
2021/08/18 01:37:46;;;;;;;11.88;6.50;;;;;;;21.52;57.78;98362.56;5115030;28;20044;-92
2021/08/18 01:40:13;;;;;;;10.57;5.63;;;;;;;21.58;57.90;98372.91;5115561;28;20038;-92
2021/08/18 01:42:39;;;;;;;12.93;6.57;;;;;;;21.71;57.29;98378.22;5114475;28;20067;-91
2021/08/18 01:45:06;;;;;;;11.13;5.95;;;;;;;21.65;57.68;98367.88;5112910;28;20067;-90
2021/08/18 01:47:33;;;;;;;12.90;6.18;;;;;;;21.54;57.80;98366.88;5114617;28;20506;-92
2021/08/18 01:49:59;;;;;;;15.27;6.25;;;;;;;21.56;58.06;98379.41;5114331;28;20035;-90
2021/08/18 01:52:25;;;;;;;11.32;6.40;;;;;;;21.60;57.75;98383.59;5114230;28;20377;-90
2021/08/18 01:54:51;;;;;;;11.35;5.90;;;;;;;21.59;57.51;98365.63;5116130;28;20040;-91
2021/08/18 01:57:17;;;;;;;14.15;6.03;;;;;;;21.66;57.74;98373.13;5116239;27;20047;-89
2021/08/18 01:59:43;;;;;;;10.25;6.13;;;;;;;21.70;57.94;98376.47;5116165;28;20102;-91
2021/08/18 02:02:09;;;;;;;12.27;6.20;;;;;;;21.56;58.18;98355.94;5114906;27;20053;-91
2021/08/18 02:04:36;;;;;;;15.05;6.82;;;;;;;21.50;58.12;98353.69;5114879;28;20044;-92
2021/08/18 02:07:03;;;;;;;13.48;7.05;;;;;;;21.45;58.83;98364.88;5116304;28;20046;-91
2021/08/18 02:09:28;;;;;;;14.13;6.47;;;;;;;21.50;58.82;98368.09;5116086;28;20059;-91
2021/08/18 02:11:54;;;;;;;9.10;6.18;;;;;;;21.48;59.29;98371.91;5115618;27;20039;-89
2021/08/18 02:14:20;;;;;;;11.00;6.53;;;;;;;21.36;59.64;98360.16;5116066;28;20028;-93
2021/08/18 02:16:46;;;;;;;12.25;6.05;;;;;;;21.22;59.80;98346.84;5114057;28;20131;-92
2021/08/18 02:19:12;;;;;;;13.90;6.32;;;;;;;21.17;59.52;98340.94;5112280;28;20066;-91
2021/08/18 02:21:39;;;;;;;10.40;5.70;;;;;;;21.13;59.84;98351.13;5114634;28;20067;-91
2021/08/18 02:24:06;;;;;;;12.02;6.30;;;;;;;21.16;60.09;98356.28;5115220;28;20042;-92
2021/08/18 02:26:32;;;;;;;13.77;6.38;;;;;;;21.08;60.73;98364.16;5116454;28;20035;-93
2021/08/18 02:28:58;;;;;;;11.82;5.93;;;;;;;20.90;61.02;98353.72;5116070;28;20063;-93
2021/08/18 02:31:27;;;;;;;11.80;6.63;;;;;;;20.65;61.90;98360.13;5112851;28;20063;-93
2021/08/18 02:33:53;;;;;;;9.02;5.97;;;;;;;20.55;62.61;98371.72;5114266;28;20031;-92
2021/08/18 02:36:18;;;;;;;15.88;6.47;;;;;;;20.44;62.67;98362.56;5116075;28;20497;-91
2021/08/18 02:38:46;;;;;;;11.70;6.18;;;;;;;20.44;62.20;98362.56;5115917;28;20118;-93
2021/08/18 02:41:12;;;;;;;13.65;6.57;;;;;;;20.31;62.64;98341.00;5114179;28;20397;-92
2021/08/18 02:43:37;;;;;;;13.27;6.22;;;;;;;20.25;63.02;98341.44;5114596;28;20039;-92
2021/08/18 02:46:03;;;;;;;12.88;6.57;;;;;;;20.38;62.37;98359.44;5113572;28;20038;-93
2021/08/18 02:48:29;;;;;;;10.85;6.28;;;;;;;20.30;62.65;98331.19;5115701;28;20050;-89
2021/08/18 02:50:57;;;;;;;11.27;6.40;;;;;;;20.42;62.38;98350.16;5115175;28;20046;-92
2021/08/18 02:53:23;;;;;;;12.30;5.90;;;;;;;20.45;62.46;98353.50;5117691;28;20027;-92
2021/08/18 02:55:50;;;;;;;12.07;6.45;;;;;;;20.36;62.80;98353.31;5118086;28;20084;-93
2021/08/18 02:58:16;;;;;;;14.27;6.75;;;;;;;20.23;63.31;98343.41;5118741;28;20415;-94
2021/08/18 03:00:42;;;;;;;11.88;6.30;;;;;;;20.36;62.93;98351.44;5106282;28;20032;-92
2021/08/18 03:03:08;;;;;;;13.43;6.25;;;;;;;20.36;62.62;98339.81;5119785;28;20104;-92
2021/08/18 03:05:34;;;;;;;16.98;7.13;;;;;;;20.33;62.54;98340.88;5119131;28;20035;-91
2021/08/18 03:08:00;;;;;;;10.73;5.70;;;;;;;20.39;61.92;98347.69;5117967;28;20055;-92
2021/08/18 03:10:26;;;;;;;16.30;7.32;;;;;;;20.59;61.62;98365.13;5118190;28;20485;-90
2021/08/18 03:12:53;;;;;;;10.93;5.75;;;;;;;20.62;61.26;98359.50;5118969;28;20050;-90
2021/08/18 03:15:20;;;;;;;10.95;6.45;;;;;;;20.58;61.59;98342.69;5117675;27;20070;-92
2021/08/18 03:17:46;;;;;;;12.90;5.82;;;;;;;20.66;61.00;98340.22;5117324;28;20035;-91
2021/08/18 03:20:12;;;;;;;13.63;6.22;;;;;;;20.75;61.13;98364.84;5118276;28;20184;-93
2021/08/18 03:22:38;;;;;;;11.57;6.35;;;;;;;20.71;60.93;98356.13;5119518;28;20060;-92
2021/08/18 03:25:06;;;;;;;13.48;6.93;;;;;;;20.57;61.04;98330.13;5119913;28;20042;-93
2021/08/18 03:27:32;;;;;;;12.30;5.65;;;;;;;20.71;61.14;98372.34;5117191;28;20061;-90
2021/08/18 03:29:59;;;;;;;12.80;6.13;;;;;;;20.67;60.98;98362.75;5116387;28;20131;-91
2021/08/18 03:32:25;;;;;;;12.07;6.00;;;;;;;20.69;61.00;98367.03;5117982;28;20043;-91
2021/08/18 03:34:51;;;;;;;10.82;5.68;;;;;;;20.74;61.08;98369.41;5119343;28;20384;-91
2021/08/18 03:37:17;;;;;;;12.73;6.18;;;;;;;20.82;61.00;98368.81;5119182;28;20039;-94
2021/08/18 03:39:42;;;;;;;13.32;6.20;;;;;;;20.78;60.99;98356.53;5119303;28;20031;-91
2021/08/18 03:42:08;;;;;;;10.10;5.32;;;;;;;20.87;60.80;98355.81;5119020;28;20285;-91
2021/08/18 03:44:34;;;;;;;11.68;6.03;;;;;;;20.93;60.18;98361.63;5118900;28;20481;-90
2021/08/18 03:47:02;;;;;;;10.95;5.90;;;;;;;21.06;59.88;98375.06;5115747;28;20144;-90
2021/08/18 03:49:27;;;;;;;12.98;6.00;;;;;;;21.10;60.05;98378.38;5117114;28;20401;-91
2021/08/18 03:51:53;;;;;;;9.32;5.53;;;;;;;21.07;59.81;98373.22;5117330;28;20035;-89
2021/08/18 03:54:19;;;;;;;13.52;6.07;;;;;;;21.00;59.99;98353.91;5118513;28;20032;-91
2021/08/18 03:56:45;;;;;;;10.85;6.05;;;;;;;21.03;59.59;98360.91;5118443;28;20028;-90
2021/08/18 03:59:11;;;;;;;10.85;5.45;;;;;;;21.03;59.92;98369.03;5118696;27;20039;-90
2021/08/18 04:01:44;;;;;;;11.30;5.53;;;;;;;21.07;60.15;98392.13;5115393;28;20057;-91
2021/08/18 04:04:11;;;;;;;12.13;5.72;;;;;;;20.93;60.27;98372.44;5116562;28;20039;-88
2021/08/18 04:06:37;;;;;;;14.52;6.82;;;;;;;20.93;60.33;98380.53;5116621;28;20044;-91
2021/08/18 04:09:03;;;;;;;12.68;5.88;;;;;;;20.81;59.75;98377.91;5119077;27;20047;-94
2021/08/18 04:11:29;;;;;;;9.38;5.90;;;;;;;20.93;60.01;98385.09;5117834;28;20066;-91
2021/08/18 04:13:55;;;;;;;10.38;5.55;;;;;;;20.97;59.58;98393.81;5118356;28;20477;-91
2021/08/18 04:16:20;;;;;;;10.38;5.95;;;;;;;20.91;59.39;98382.50;5117178;27;20035;-92
2021/08/18 04:18:46;;;;;;;11.70;5.45;;;;;;;20.96;58.74;98371.34;5118475;28;20028;-94
2021/08/18 04:21:14;;;;;;;12.05;5.60;;;;;;;21.11;58.41;98389.09;5119096;28;20392;-94
2021/08/18 04:23:39;;;;;;;10.48;5.45;;;;;;;21.14;57.71;98374.47;5118169;27;20131;-91
2021/08/18 04:26:05;;;;;;;8.88;5.85;;;;;;;21.20;57.06;98370.44;5117791;27;20055;-93
2021/08/18 04:28:31;;;;;;;14.85;5.53;;;;;;;21.32;57.52;98385.72;5118670;28;20439;-92
2021/08/18 04:30:57;;;;;;;12.38;5.80;;;;;;;21.25;57.42;98385.34;5117237;28;20059;-90
2021/08/18 04:33:23;;;;;;;10.35;5.30;;;;;;;21.30;56.47;98390.38;5118374;28;20035;-94
2021/08/18 04:35:49;;;;;;;13.43;5.65;;;;;;;21.25;56.16;98373.63;5116657;27;20048;-90
2021/08/18 04:38:18;;;;;;;18.20;5.35;;;;;;;21.27;56.38;98377.09;5116636;28;20078;-94
2021/08/18 04:40:44;;;;;;;12.50;5.63;;;;;;;21.31;56.09;98379.44;5116934;28;20043;-92
2021/08/18 04:43:12;;;;;;;8.68;5.28;;;;;;;21.38;56.72;98392.47;5115947;28;20119;-91
2021/08/18 04:45:38;;;;;;;9.87;5.70;;;;;;;21.36;56.31;98398.03;5113883;27;20047;-92
2021/08/18 04:48:04;;;;;;;10.10;5.35;;;;;;;21.24;56.63;98385.44;5116411;28;20042;-90
2021/08/18 04:50:33;;;;;;;11.45;5.57;;;;;;;21.33;56.56;98403.66;5116299;28;20036;-92
2021/08/18 04:52:59;;;;;;;;;;;;;;;21.42;55.98;98419.22;5115602;28;20036;-94
2021/08/18 04:55:26;;;;;;;11.25;5.00;;;;;;;21.41;56.36;98414.78;5117096;28;20300;-92
2021/08/18 04:57:52;;;;;;;7.88;4.82;;;;;;;21.39;56.02;98419.44;5117238;28;20059;-91
2021/08/18 05:00:18;;;;;;;12.38;5.25;;;;;;;21.32;56.30;98412.78;5116516;28;20067;-93
2021/08/18 05:02:45;;;;;;;9.32;5.00;;;;;;;21.28;56.78;98412.13;5117442;28;20066;-92
2021/08/18 05:05:12;;;;;;;9.20;4.93;;;;;;;21.23;56.77;98418.88;5113048;28;20059;-91
2021/08/18 05:07:37;;;;;;;9.90;4.88;;;;;;;21.19;56.49;98409.25;5116722;28;20051;-91
2021/08/18 05:10:04;;;;;;;12.35;5.50;;;;;;;21.29;56.87;98430.06;5116482;28;20039;-90
2021/08/18 05:12:32;;;;;;;8.55;4.57;;;;;;;21.27;57.04;98423.06;5116025;28;20036;-93
2021/08/18 05:14:57;;;;;;;9.88;5.32;;;;;;;21.27;56.48;98420.34;5114119;28;20047;-92
2021/08/18 05:17:23;;;;;;;9.65;5.05;;;;;;;21.37;56.23;98429.50;5117133;28;20032;-89
2021/08/18 05:19:49;;;;;;;10.07;5.20;;;;;;;21.42;56.35;98427.31;5117755;28;20088;-91
2021/08/18 05:22:15;;;;;;;11.38;5.05;;;;;;;21.39;55.53;98419.44;5117185;28;20039;-93
2021/08/18 05:24:41;;;;;;;7.25;4.70;;;;;;;21.44;55.05;98414.53;5116018;28;20028;-93
2021/08/18 05:27:07;;;;;;;9.68;4.88;;;;;;;21.71;53.63;98416.09;5118912;28;20031;-90
2021/08/18 05:29:34;;;;;;;9.10;4.72;;;;;;;21.88;52.87;98423.75;5117972;28;20043;-91
2021/08/18 05:32:00;;;;;;;7.82;4.13;;;;;;;22.22;52.41;98431.91;5116737;28;20167;-90
2021/08/18 05:34:25;;;;;;;9.07;4.25;;;;;;;22.44;51.98;98424.75;5118748;28;20079;-93
2021/08/18 05:36:51;;;;;;;10.20;4.85;;;;;;;22.40;51.88;98426.00;5118022;28;20035;-90
2021/08/18 05:39:17;;;;;;;11.85;4.40;;;;;;;22.37;52.21;98432.53;5118082;28;20059;-91
2021/08/18 05:41:43;;;;;;;10.68;5.07;;;;;;;22.28;52.79;98439.56;5117797;28;20035;-89
2021/08/18 05:44:09;;;;;;;8.60;4.28;;;;;;;22.39;51.86;98438.69;5118209;28;20496;-93
2021/08/18 05:46:36;;;;;;;8.23;4.43;;;;;;;22.25;52.37;98428.97;5116735;28;20046;-91
2021/08/18 05:49:02;;;;;;;9.40;4.22;;;;;;;22.32;52.29;98440.19;5111037;28;20040;-93
2021/08/18 05:51:28;;;;;;;10.13;4.68;;;;;;;22.26;52.35;98430.69;5119228;28;20044;-93
2021/08/18 05:53:54;;;;;;;8.60;4.47;;;;;;;22.27;52.79;98426.13;5118468;28;20124;-92
2021/08/18 05:56:20;;;;;;;9.70;4.60;;;;;;;22.53;52.36;98445.69;5118956;28;20522;-93
2021/08/18 05:58:46;;;;;;;11.18;4.50;;;;;;;22.54;52.37;98442.84;5117393;28;20063;-91
2021/08/18 06:01:12;;;;;;;8.30;4.45;;;;;;;22.63;52.04;98427.69;5115236;28;20039;-91
2021/08/18 06:03:39;;;;;;;8.68;4.28;;;;;;;22.55;52.13;98431.03;5116893;28;20046;-93
2021/08/18 06:06:05;;;;;;;8.27;4.40;;;;;;;22.56;52.20;98440.88;5116877;28;20046;-92
2021/08/18 06:08:31;;;;;;;10.25;4.50;;;;;;;22.58;51.91;98435.34;5117086;28;20024;-92
2021/08/18 06:10:56;;;;;;;8.70;4.22;;;;;;;22.69;51.46;98419.06;5116354;28;20065;-93
2021/08/18 06:13:23;;;;;;;12.90;5.45;;;;;;;22.76;50.91;98422.97;5116155;28;20556;-92
2021/08/18 06:15:49;;;;;;;9.48;4.18;;;;;;;22.87;51.25;98435.63;5113743;28;20054;-90
2021/08/18 06:18:15;;;;;;;9.45;4.50;;;;;;;22.94;51.46;98427.84;5116802;28;20036;-92
2021/08/18 06:20:42;;;;;;;6.90;4.05;;;;;;;23.00;50.49;98407.50;5115756;28;20036;-91
2021/08/18 06:23:08;;;;;;;8.38;4.50;;;;;;;23.42;50.04;98430.19;5116084;28;20034;-92
2021/08/18 06:25:34;;;;;;;6.78;3.80;;;;;;;23.45;49.25;98410.91;5115525;28;20500;-91
2021/08/18 06:28:00;;;;;;;10.40;4.28;;;;;;;23.48;49.19;98415.22;5116784;28;20042;-91
2021/08/18 06:30:26;;;;;;;10.40;4.55;;;;;;;23.52;49.72;98432.97;5114372;28;20028;-92
2021/08/18 06:32:52;;;;;;;8.50;4.43;;;;;;;23.60;49.63;98445.88;5115388;28;20058;-91
2021/08/18 06:35:18;;;;;;;8.73;4.03;;;;;;;23.56;48.88;98418.13;5116066;28;20533;-92
2021/08/18 06:37:45;;;;;;;7.78;4.20;;;;;;;23.53;48.97;98435.56;5114238;28;20036;-92
2021/08/18 06:40:11;;;;;;;6.97;4.30;;;;;;;23.72;48.70;98432.09;5116073;28;20044;-91
2021/08/18 06:42:44;;;;;;;9.60;4.00;;;;;;;23.97;48.23;98430.84;5113473;28;20138;-92
2021/08/18 06:45:11;;;;;;;6.70;4.07;;;;;;;23.99;47.58;98453.31;5113877;28;20062;-93
2021/08/18 06:47:38;;;;;;;10.63;3.90;;;;;;;24.01;47.78;98452.28;5114953;28;20043;-91
2021/08/18 06:50:05;;;;;;;7.00;3.58;;;;;;;23.98;47.45;98432.59;5113953;28;20817;-91
2021/08/18 06:52:31;;;;;;;7.68;4.10;;;;;;;24.01;47.47;98438.72;5113510;28;20040;-90
2021/08/18 06:54:59;;;;;;;8.90;3.80;;;;;;;23.98;47.75;98450.72;5113552;28;20043;-91
2021/08/18 06:57:25;;;;;;;7.97;4.28;;;;;;;23.97;47.81;98447.16;5113766;28;20048;-93
2021/08/18 06:59:50;;;;;;;8.88;3.80;;;;;;;24.08;47.47;98439.91;5112447;28;20043;-92
2021/08/18 07:02:16;;;;;;;7.63;3.80;;;;;;;24.15;47.15;98424.78;5116219;28;20101;-92
2021/08/18 07:04:42;;;;;;;9.57;4.03;;;;;;;24.34;46.54;98429.47;5116441;28;20051;-93
2021/08/18 07:07:08;;;;;;;6.07;3.85;;;;;;;24.43;46.49;98441.38;5115138;28;20043;-93
2021/08/18 07:09:34;;;;;;;9.82;3.97;;;;;;;24.39;46.08;98428.03;5115385;28;20558;-91
2021/08/18 07:12:01;;;;;;;8.55;3.67;;;;;;;24.66;46.12;98445.63;5116434;28;20035;-95
2021/08/18 07:14:27;;;;;;;10.68;4.22;;;;;;;24.57;45.36;98432.84;5115696;28;20085;-92
2021/08/18 07:16:53;;;;;;;7.53;3.92;;;;;;;24.51;46.25;98437.00;5115776;28;20052;-95
2021/08/18 07:19:19;;;;;;;7.97;4.07;;;;;;;24.70;44.84;98433.47;5117082;28;20074;-92
2021/08/18 07:21:44;;;;;;;9.45;4.35;;;;;;;24.72;45.85;98446.91;5115940;28;20158;-94
2021/08/18 07:24:10;;;;;;;8.68;3.67;;;;;;;24.89;45.43;98431.78;5115094;28;20044;-93
2021/08/18 07:26:36;;;;;;;10.57;4.00;;;;;;;24.79;45.63;98421.75;5117180;28;20504;-92
2021/08/18 07:29:04;;;;;;;6.90;4.00;;;;;;;24.99;44.70;98435.38;5115344;28;20035;-92
2021/08/18 07:31:30;;;;;;;11.40;3.92;;;;;;;24.87;45.42;98420.19;5114859;28;20062;-92
2021/08/18 07:33:56;;;;;;;8.27;3.80;;;;;;;25.09;45.44;98425.38;5117196;28;20044;-90
2021/08/18 07:36:22;;;;;;;6.97;3.70;;;;;;;25.54;43.87;98430.25;5115056;28;20047;-93
2021/08/18 07:38:48;;;;;;;6.30;3.83;;;;;;;25.40;43.28;98436.16;5116523;28;20115;-94
2021/08/18 07:41:14;;;;;;;7.95;3.75;;;;;;;25.23;43.97;98442.31;5118816;28;20123;-93
2021/08/18 07:43:40;;;;;;;7.95;3.53;;;;;;;25.37;43.86;98433.72;5119974;28;20051;-92
2021/08/18 07:46:07;;;;;;;13.52;4.07;;;;;;;25.50;43.48;98438.88;5118006;28;20035;-93
2021/08/18 07:48:33;;;;;;;7.22;3.80;;;;;;;25.81;42.71;98445.00;5123469;27;20035;-92
2021/08/18 07:50:59;;;;;;;12.27;3.90;;;;;;;25.69;42.65;98449.75;5119447;28;20016;-94
2021/08/18 07:53:25;;;;;;;9.15;4.15;;;;;;;25.76;42.41;98433.69;5125274;27;20042;-90
2021/08/18 07:55:51;;;;;;;9.80;3.97;;;;;;;25.96;42.74;98451.75;5120242;27;20055;-92
2021/08/18 07:58:17;;;;;;;7.97;4.32;;;;;;;26.34;41.96;98457.22;5119144;28;20092;-91
2021/08/18 08:00:43;;;;;;;9.18;4.38;;;;;;;26.62;40.34;98434.44;5115413;28;20036;-93
2021/08/18 08:03:10;;;;;;;7.30;3.97;;;;;;;26.43;40.68;98440.81;5118027;28;20075;-92
2021/08/18 08:05:36;;;;;;;10.63;3.67;;;;;;;26.38;39.95;98454.03;5118438;28;20043;-92
2021/08/18 08:08:02;;;;;;;6.70;3.78;;;;;;;26.77;38.70;98434.81;5118067;28;20051;-92
2021/08/18 08:10:28;;;;;;;8.18;3.63;;;;;;;26.59;39.02;98461.19;5118133;28;20043;-92
2021/08/18 08:12:54;;;;;;;10.02;3.80;;;;;;;26.34;39.61;98452.63;5117220;28;20042;-91
2021/08/18 08:15:20;;;;;;;8.23;3.75;;;;;;;26.79;39.55;98453.75;5124168;27;20365;-91
2021/08/18 08:17:46;;;;;;;9.95;3.85;;;;;;;26.26;39.70;98454.38;5118857;28;20035;-94
2021/08/18 08:20:13;;;;;;;7.43;3.80;;;;;;;25.73;40.12;98447.59;5117202;28;20032;-91
2021/08/18 08:22:40;;;;;;;6.05;3.60;;;;;;;26.14;39.63;98461.88;5118220;28;20261;-92
2021/08/18 08:25:07;;;;;;;7.93;3.67;;;;;;;26.26;40.45;98466.13;5117842;27;20043;-92
2021/08/18 08:27:37;;;;;;;9.00;4.20;;;;;;;26.02;40.10;98450.28;5117070;28;20046;-91
2021/08/18 08:30:04;;;;;;;12.65;4.63;;;;;;;26.39;39.89;98480.31;5116321;28;20036;-92
2021/08/18 08:32:30;;;;;;;14.35;4.10;;;;;;;26.10;39.58;98469.50;5121860;27;20142;-91
2021/08/18 08:34:56;;;;;;;9.95;3.53;;;;;;;26.49;39.65;98452.16;5120329;27;20040;-93
2021/08/18 08:37:23;;;;;;;7.63;3.83;;;;;;;26.47;39.62;98467.78;5119991;28;20040;-89
2021/08/18 08:39:49;;;;;;;6.78;3.35;;;;;;;26.94;38.07;98443.19;5120234;28;20071;-92
2021/08/18 08:42:15;;;;;;;7.70;4.00;;;;;;;26.96;38.25;98452.06;5117997;27;20066;-92
2021/08/18 08:44:42;;;;;;;10.68;3.60;;;;;;;27.05;36.51;98456.59;5119500;27;20051;-92
2021/08/18 08:47:08;;;;;;;6.78;3.70;;;;;;;27.14;38.31;98458.41;5119453;28;20050;-93
2021/08/18 08:49:35;;;;;;;7.25;3.78;;;;;;;27.47;37.94;98434.19;5121639;28;20042;-93
2021/08/18 08:52:01;;;;;;;10.98;4.50;;;;;;;27.40;35.89;98449.47;5118147;28;20062;-93
2021/08/18 08:54:28;;;;;;;7.50;3.65;;;;;;;27.89;34.70;98436.28;5118916;28;20040;-92
2021/08/18 08:56:54;;;;;;;8.50;4.65;;;;;;;28.12;33.28;98444.78;5117588;28;20039;-93
2021/08/18 08:59:20;;;;;;;6.22;3.80;;;;;;;28.67;34.04;98458.09;5117834;27;20059;-94
2021/08/18 09:02:02;;;;;;;7.53;4.00;;;;;;;28.23;34.79;98451.84;5113686;27;20054;-91
2021/08/18 09:04:30;;;;;;;8.70;4.32;;;;;;;28.11;33.84;98450.44;5115208;28;20044;-91
2021/08/18 09:07:09;;;;;;;9.95;4.53;;;;;;;28.09;34.70;98458.78;5114403;28;20046;-93
2021/08/18 09:09:39;;;;;;;11.10;4.93;;;;;;;28.24;34.24;98451.69;5116531;27;20046;-93
2021/08/18 09:12:07;;;;;;;10.13;4.95;;;;;;;28.32;34.05;98464.53;5115293;28;20074;-94
2021/08/18 09:14:33;;;;;;;10.90;5.05;;;;;;;27.77;35.90;98453.91;5115137;28;20509;-93
2021/08/18 09:16:59;;;;;;;10.20;5.45;;;;;;;27.95;35.67;98442.97;5112959;28;20043;-93
2021/08/18 09:19:29;;;;;;;9.82;5.43;;;;;;;28.11;35.30;98451.28;5115791;27;20416;-90
2021/08/18 09:22:00;;;;;;;9.52;5.20;;;;;;;27.72;35.19;98429.78;5114612;28;20046;-91
2021/08/18 09:24:28;;;;;;;12.15;5.47;;;;;;;28.18;35.08;98441.41;5117176;28;20467;-93
2021/08/18 09:26:57;;;;;;;11.07;5.80;;;;;;;28.58;35.62;98441.81;5114498;28;20046;-91
2021/08/18 09:29:43;;;;;;;12.30;6.53;;;;;;;28.50;36.44;98452.69;5117120;27;20074;-91
2021/08/18 09:32:27;;;;;;;10.50;6.03;;;;;;;28.12;37.16;98443.94;5115823;28;20634;-91
2021/08/18 09:34:55;;;;;;;12.05;5.70;;;;;;;27.94;36.03;98435.78;5117079;28;20039;-93
2021/08/18 09:37:20;;;;;;;;;;;;;;;28.56;35.45;98452.94;5117305;27;20036;-91
2021/08/18 09:39:47;;;;;;;14.10;5.57;;;;;;;28.19;37.19;98453.19;5116754;28;19920;-91
2021/08/18 09:42:26;;;;;;;11.30;5.90;;;;;;;28.54;36.31;98426.75;5114957;28;20035;-93
2021/08/18 09:45:08;;;;;;;9.45;6.30;;;;;;;29.01;35.02;98445.38;5112682;28;20040;-93
2021/08/18 09:47:34;;;;;;;12.35;5.15;;;;;;;28.74;35.01;98424.63;5116410;28;20051;-92
2021/08/18 09:50:00;;;;;;;11.18;5.10;;;;;;;29.00;35.11;98432.75;5115196;28;20045;-92
2021/08/18 09:52:26;;;;;;;10.60;5.43;;;;;;;29.27;33.85;98426.13;5114137;28;20040;-94
2021/08/18 09:54:52;;;;;;;8.13;5.40;;;;;;;29.29;34.17;98424.94;5114820;28;20069;-93
2021/08/18 09:57:31;;;;;;;9.68;4.53;;;;;;;29.23;34.15;98420.16;5114775;28;20092;-92
2021/08/18 09:59:56;;;;;;;;;;;;;;;28.69;34.60;98427.81;5112351;27;20022;-91
2021/08/18 10:02:23;;;;;;;11.90;5.60;;;;;;;28.88;34.61;98410.28;5115367;28;19920;-91
2021/08/18 10:04:49;;;;;;;10.63;5.28;;;;;;;29.26;33.53;98411.59;5114123;28;20520;-93
2021/08/18 10:07:15;;;;;;;11.10;5.53;;;;;;;29.41;32.99;98414.53;5114086;28;20085;-91
2021/08/18 10:09:41;;;;;;;9.45;5.05;;;;;;;28.98;33.47;98400.03;5114447;28;20047;-89
2021/08/18 10:12:08;;;;;;;10.73;5.10;;;;;;;29.47;33.45;98391.03;5114492;28;20066;-91
2021/08/18 10:14:36;;;;;;;9.32;4.90;;;;;;;29.41;32.75;98414.53;5114745;28;20086;-92
2021/08/18 10:17:02;;;;;;;7.67;4.57;;;;;;;29.26;33.50;98410.75;5110275;28;20043;-91
2021/08/18 10:19:28;;;;;;;12.63;4.80;;;;;;;28.67;33.99;98417.06;5113650;28;20044;-91
2021/08/18 10:21:58;;;;;;;8.45;4.30;;;;;;;28.86;33.60;98415.94;5112837;28;20032;-92
2021/08/18 10:24:29;;;;;;;8.30;4.35;;;;;;;28.87;32.69;98400.38;5112936;28;20040;-92
2021/08/18 10:26:55;;;;;;;8.80;4.20;;;;;;;28.50;33.58;98398.88;5115275;28;20035;-93
2021/08/18 10:29:41;;;;;;;9.85;3.90;;;;;;;29.02;32.81;98398.69;5115049;28;20057;-91
2021/08/18 10:32:09;;;;;;;7.22;3.50;;;;;;;29.39;32.29;98416.56;5113605;28;20071;-91
2021/08/18 10:34:43;;;;;;;8.73;4.13;;;;;;;28.78;32.55;98413.19;5116127;28;20036;-92
2021/08/18 10:37:21;;;;;;;9.77;4.25;;;;;;;28.91;32.69;98400.88;5115015;28;20408;-91
2021/08/18 10:42:47;;;;;;;7.90;3.80;;;;;;;29.69;31.18;98406.84;5131590;27;20355;-93
2021/08/18 10:45:37;;;;;;;7.90;3.75;;;;;;;29.78;31.10;98412.31;5133262;27;20047;-92
2021/08/18 10:48:03;;;;;;;5.68;3.47;;;;;;;29.66;31.23;98403.53;5132338;28;20047;-92
2021/08/18 10:50:47;;;;;;;13.23;3.85;;;;;;;29.42;31.50;98412.63;5134414;27;20044;-93
2021/08/18 10:53:33;;;;;;;7.38;3.80;;;;;;;29.78;31.29;98404.09;5132860;27;20028;-91
2021/08/18 10:55:59;;;;;;;11.98;4.07;;;;;;;29.89;30.76;98401.00;5132992;27;20614;-91
2021/08/18 10:58:31;;;;;;;10.52;3.78;;;;;;;29.67;30.60;98408.88;5135507;27;20063;-92
2021/08/18 11:00:57;;;;;;;8.68;4.07;;;;;;;29.92;30.74;98403.38;5132085;27;20084;-91
2021/08/18 11:03:26;;;;;;;9.45;4.00;;;;;;;30.23;30.07;98408.09;5133848;27;20035;-89
2021/08/18 11:05:55;;;;;;;9.90;3.92;;;;;;;30.17;28.69;98387.75;5133526;27;20031;-95
2021/08/18 11:08:23;;;;;;;8.32;3.95;;;;;;;30.15;29.00;98397.19;5133305;27;20053;-90
2021/08/18 11:11:14;;;;;;;8.70;3.67;;;;;;;29.95;29.81;98403.06;5133096;28;20040;-91
2021/08/18 11:13:47;;;;;;;7.45;3.65;;;;;;;30.14;29.12;98401.78;5133755;28;20027;-92
2021/08/18 11:16:15;;;;;;;7.68;3.78;;;;;;;30.22;29.44;98384.47;5131452;27;20159;-91
2021/08/18 11:18:46;;;;;;;;;;;;;;;30.45;28.90;98407.41;5133170;28;20074;-89
2021/08/18 11:21:15;;;;;;;6.57;3.30;;;;;;;30.18;29.51;98388.59;5131374;27;19993;-90
2021/08/18 11:23:48;;;;;;;6.90;3.03;;;;;;;30.30;29.23;98399.03;5131372;27;20053;-90
2021/08/18 11:26:18;;;;;;;9.25;3.50;;;;;;;30.41;28.65;98377.75;5130478;28;20035;-90
2021/08/18 11:28:51;;;;;;;5.63;3.13;;;;;;;30.48;28.44;98400.69;5132679;27;20108;-91
2021/08/18 11:31:17;;;;;;;7.05;3.47;;;;;;;29.99;29.50;98390.69;5131546;27;20497;-91
2021/08/18 11:33:46;;;;;;;6.65;2.92;;;;;;;30.19;28.63;98391.16;5131530;27;20051;-92